Time;durP1;ratioP1;P1;durP2;ratioP2;P2;SDS_P1;SDS_P2;PMS_P1;PMS_P2;Temp;Humidity;BMP_temperature;BMP_pressure;BME280_temperature;BME280_humidity;BME280_pressure;Samples;Min_cycle;Max_cycle;Signal;HPM_P1;HPM_P2
2023/10/02 00:02:40;;;;;;;11.73;5.93;;;;;;;21.27;72.17;101807.50;4983106;28;98654;-71
2023/10/02 00:05:06;;;;;;;13.05;5.60;;;;;;;21.40;72.24;101803.06;4984703;28;98973;-71
2023/10/02 00:07:33;;;;;;;10.40;5.65;;;;;;;21.26;72.82;101809.34;4982930;28;98923;-71
2023/10/02 00:10:00;;;;;;;13.85;5.68;;;;;;;21.26;72.63;101805.78;4989989;28;97265;-71
2023/10/02 00:12:28;;;;;;;11.20;5.43;;;;;;;21.32;72.10;101805.41;4987220;28;96766;-70
2023/10/02 00:14:57;;;;;;;14.32;6.32;;;;;;;21.19;72.60;101812.50;4989419;28;98819;-70
2023/10/02 00:17:24;;;;;;;9.80;5.45;;;;;;;20.90;73.67;101807.09;4989169;28;100742;-71
2023/10/02 00:19:57;;;;;;;12.18;5.35;;;;;;;21.06;73.13;101807.88;4991906;28;97242;-71
2023/10/02 00:22:36;;;;;;;11.95;5.63;;;;;;;20.88;73.98;101802.75;4987740;28;96857;-71
2023/10/02 00:25:06;;;;;;;11.65;5.57;;;;;;;20.91;74.02;101806.13;4980232;28;99037;-70
2023/10/02 00:27:34;;;;;;;12.30;5.43;;;;;;;21.13;72.31;101800.31;4989954;28;99248;-70
2023/10/02 00:30:02;;;;;;;11.23;5.47;;;;;;;21.16;71.80;101800.13;4990847;28;97095;-71
2023/10/02 00:32:31;;;;;;;10.38;5.40;;;;;;;21.02;72.22;101800.94;4981979;28;96873;-70
2023/10/02 00:35:00;;;;;;;14.10;6.63;;;;;;;21.19;70.41;101799.94;4984557;28;98895;-71
2023/10/02 00:37:43;;;;;;;9.65;5.03;;;;;;;21.35;69.15;101798.00;4988901;28;101092;-71
2023/10/02 00:40:13;;;;;;;10.40;5.30;;;;;;;21.16;70.51;101796.56;4991297;28;97699;-70
2023/10/02 00:42:38;;;;;;;11.25;4.85;;;;;;;21.31;70.16;101795.59;4993440;28;96888;-71
2023/10/02 00:45:06;;;;;;;;;;;;;;;21.39;69.96;101798.69;4992730;28;98952;-70
2023/10/02 00:47:38;;;;;;;9.30;5.22;;;;;;;21.56;68.74;101795.75;4984728;28;98341;-70
2023/10/02 00:50:16;;;;;;;10.90;5.40;;;;;;;21.44;69.04;101799.25;4989610;28;97458;-71
2023/10/02 00:52:47;;;;;;;10.02;4.93;;;;;;;21.33;69.42;101794.53;4992276;28;96833;-71
2023/10/02 00:55:16;;;;;;;8.32;5.05;;;;;;;21.16;70.83;101796.56;4983983;28;98916;-71
2023/10/02 00:57:45;;;;;;;10.95;5.63;;;;;;;21.40;69.25;101795.88;4980423;28;98755;-71
2023/10/02 01:00:20;;;;;;;9.90;5.03;;;;;;;21.01;70.23;101804.59;4990801;28;96963;-70
2023/10/02 01:02:48;;;;;;;9.50;6.07;;;;;;;21.30;68.36;101807.31;4984414;28;96830;-70
2023/10/02 01:05:16;;;;;;;10.63;5.55;;;;;;;21.47;68.28;101801.72;4991041;28;99228;-70
2023/10/02 01:07:46;;;;;;;11.20;4.78;;;;;;;21.48;67.70;101787.31;4984923;28;98729;-71
2023/10/02 01:10:18;;;;;;;10.00;4.85;;;;;;;21.60;67.99;101796.41;4983716;28;96722;-71
2023/10/02 01:12:49;;;;;;;13.30;5.65;;;;;;;21.40;65.74;101795.00;4988829;28;96826;-70
2023/10/02 01:15:19;;;;;;;9.90;5.03;;;;;;;21.55;65.56;101793.16;4985411;28;98922;-70
2023/10/02 01:17:48;;;;;;;10.57;5.20;;;;;;;21.68;64.86;101789.56;4987078;28;98666;-70
2023/10/02 01:20:20;;;;;;;12.45;5.63;;;;;;;21.63;64.22;101802.47;4986632;28;97625;-70
2023/10/02 01:22:52;;;;;;;10.50;5.30;;;;;;;21.65;64.44;101802.38;4983479;28;100485;-70
2023/10/02 01:25:23;;;;;;;14.52;5.22;;;;;;;21.76;65.53;101803.38;4980116;28;98986;-70
2023/10/02 01:27:55;;;;;;;9.63;5.15;;;;;;;21.62;66.50;101808.81;4988957;28;101378;-69
2023/10/02 01:30:23;;;;;;;10.02;5.15;;;;;;;21.58;67.65;101809.97;4981388;28;97272;-70
2023/10/02 01:33:06;;;;;;;11.48;5.15;;;;;;;21.75;67.38;101814.25;4981109;28;96758;-69
2023/10/02 01:35:37;;;;;;;10.55;4.78;;;;;;;21.61;68.63;101808.88;4981400;28;99873;-68
2023/10/02 01:38:12;;;;;;;10.98;5.38;;;;;;;21.63;68.81;101806.97;4988846;28;98978;-70
2023/10/02 01:40:43;;;;;;;11.83;5.37;;;;;;;21.91;67.71;101806.91;4992947;28;96777;-71
2023/10/02 01:43:13;;;;;;;14.95;5.30;;;;;;;21.78;68.57;101804.16;4988098;28;97327;-71
2023/10/02 01:45:44;;;;;;;10.57;5.05;;;;;;;21.72;68.23;101801.00;4986270;28;101186;-71
2023/10/02 01:48:13;;;;;;;14.50;5.30;;;;;;;21.81;66.61;101800.38;4988416;28;98954;-71
2023/10/02 01:50:42;;;;;;;11.68;5.38;;;;;;;21.68;66.69;101805.72;4988497;28;96690;-71
2023/10/02 01:53:26;;;;;;;10.48;5.45;;;;;;;21.66;66.89;101810.31;4985014;28;96899;-71
2023/10/02 01:56:00;;;;;;;14.10;5.78;;;;;;;21.63;67.86;101798.91;4986340;28;98880;-71
2023/10/02 01:58:27;;;;;;;11.50;5.18;;;;;;;21.56;67.80;101798.44;4985911;28;98994;-71
2023/10/02 02:00:54;;;;;;;8.80;5.60;;;;;;;21.60;67.98;101810.72;4985625;28;97144;-71
2023/10/02 02:03:22;;;;;;;11.25;5.20;;;;;;;21.43;68.72;101802.88;4992085;28;96673;-71
2023/10/02 02:05:49;;;;;;;10.75;4.70;;;;;;;21.75;67.37;101801.66;4984211;28;99068;-71
2023/10/02 02:08:25;;;;;;;9.52;5.00;;;;;;;21.65;68.84;101800.53;4982137;28;102173;-70
2023/10/02 02:10:54;;;;;;;9.40;4.75;;;;;;;21.59;69.68;101789.31;4987414;28;97552;-71
2023/10/02 02:13:22;;;;;;;11.77;5.72;;;;;;;21.50;70.45;101790.78;4991251;28;96777;-71
2023/10/02 02:15:51;;;;;;;11.77;5.50;;;;;;;21.42;70.13;101793.09;4987830;28;97739;-71
2023/10/02 02:18:20;;;;;;;12.20;4.95;;;;;;;21.42;71.35;101793.09;4988395;28;98981;-71
2023/10/02 02:20:57;;;;;;;10.60;5.05;;;;;;;21.44;71.75;101788.47;4982263;28;97102;-71
2023/10/02 02:23:26;;;;;;;11.27;5.07;;;;;;;21.42;72.15;101793.09;4987349;28;97292;-72
2023/10/02 02:25:52;;;;;;;10.15;5.30;;;;;;;21.26;72.36;101797.72;4978906;28;98060;-71
2023/10/02 02:28:19;;;;;;;10.38;5.38;;;;;;;21.56;70.16;101790.38;4987786;28;101324;-71
2023/10/02 02:30:47;;;;;;;11.43;5.72;;;;;;;21.87;68.40;101789.22;4984706;28;96822;-71
2023/10/02 02:33:14;;;;;;;14.98;7.15;;;;;;;21.90;67.72;101789.03;4984675;28;96983;-71
2023/10/02 02:35:40;;;;;;;16.98;8.40;;;;;;;21.95;67.17;101786.88;4979125;28;99322;-69
2023/10/02 02:38:13;;;;;;;10.35;5.97;;;;;;;21.89;67.42;101781.91;4986511;28;99091;-70
2023/10/02 02:40:40;;;;;;;13.52;6.28;;;;;;;21.31;71.38;101780.34;4984886;28;98493;-69
2023/10/02 02:43:13;;;;;;;10.73;5.32;;;;;;;21.59;70.07;101781.25;4991912;28;96931;-69
2023/10/02 02:45:38;;;;;;;13.60;5.80;;;;;;;21.96;68.13;101785.97;4989424;28;99594;-70
2023/10/02 02:48:08;;;;;;;;;;;;;;;21.65;68.70;101779.03;4990018;28;99067;-70
2023/10/02 02:50:35;;;;;;;13.77;6.00;;;;;;;21.75;68.55;101781.97;4991770;28;96694;-69
2023/10/02 02:53:21;;;;;;;15.73;6.03;;;;;;;21.52;69.00;101782.63;4986010;28;97142;-70
2023/10/02 02:56:10;;;;;;;12.98;5.40;;;;;;;21.37;69.83;101792.53;4989175;28;99176;-71
2023/10/02 02:58:38;;;;;;;14.40;6.13;;;;;;;21.57;69.17;101784.03;4987415;28;99064;-71
2023/10/02 03:01:06;;;;;;;17.08;6.35;;;;;;;21.56;68.80;101784.13;4985817;28;97410;-71
2023/10/02 03:03:34;;;;;;;12.32;6.00;;;;;;;21.41;69.58;101784.16;4982522;28;97135;-70
2023/10/02 03:06:00;;;;;;;12.10;5.82;;;;;;;21.38;70.49;101783.50;4982768;28;96984;-70
2023/10/02 03:08:37;;;;;;;15.80;6.28;;;;;;;21.31;71.64;101783.03;4976928;28;98748;-70
2023/10/02 03:11:06;;;;;;;12.55;5.85;;;;;;;21.29;72.51;101781.38;4980888;28;96752;-70
2023/10/02 03:13:34;;;;;;;11.73;5.53;;;;;;;21.22;73.02;101785.44;4985943;28;96818;-70
2023/10/02 03:16:08;;;;;;;12.40;5.57;;;;;;;21.05;73.79;101779.28;4973719;28;98254;-70
2023/10/02 03:18:37;;;;;;;12.13;5.75;;;;;;;20.80;75.34;101775.53;4981101;28;98824;-70
2023/10/02 03:21:14;;;;;;;12.65;6.00;;;;;;;21.02;74.22;101779.47;4973730;28;96789;-70
2023/10/02 03:23:42;;;;;;;8.85;5.35;;;;;;;21.19;73.33;101780.25;4972455;28;96700;-70
2023/10/02 03:26:26;;;;;;;11.85;5.50;;;;;;;20.77;75.04;101784.63;4975533;28;101707;-70
2023/10/02 03:29:00;;;;;;;11.02;6.63;;;;;;;20.68;74.71;101782.50;4980243;28;98772;-70
2023/10/02 03:31:34;;;;;;;14.38;5.78;;;;;;;20.58;74.00;101779.53;4975617;28;96760;-70
2023/10/02 03:34:24;;;;;;;11.93;5.93;;;;;;;20.69;73.62;101774.34;4988946;28;96922;-70
2023/10/02 03:36:49;;;;;;;13.27;5.55;;;;;;;20.50;73.65;101775.56;4989694;28;99068;-70
2023/10/02 03:39:51;;;;;;;18.33;6.53;;;;;;;20.51;73.37;101780.84;4980388;28;98803;-70
2023/10/02 03:42:12;;;;;;;14.20;6.50;;;;;;;20.62;73.18;101774.81;4982964;28;98940;-70
2023/10/02 03:44:39;;;;;;;14.18;6.28;;;;;;;20.36;74.00;101771.03;4988395;28;97922;-70
2023/10/02 03:47:06;;;;;;;16.25;6.38;;;;;;;20.35;74.14;101766.63;4984095;28;98851;-70
2023/10/02 03:49:34;;;;;;;15.30;6.38;;;;;;;20.43;73.29;101763.47;4985937;28;98878;-70
2023/10/02 03:52:01;;;;;;;12.57;6.25;;;;;;;20.21;74.01;101766.56;4987338;28;96898;-70
2023/10/02 03:54:29;;;;;;;27.98;6.95;;;;;;;20.15;74.03;101770.47;4990292;28;96902;-70
2023/10/02 03:56:56;;;;;;;21.63;6.22;;;;;;;20.24;73.83;101759.19;4986957;28;100825;-70
2023/10/02 03:59:27;;;;;;;18.88;6.47;;;;;;;20.16;73.87;101758.78;4989507;28;99250;-70
2023/10/02 04:01:54;;;;;;;14.27;6.07;;;;;;;20.16;73.48;101756.09;4986180;28;96828;-70
2023/10/02 04:04:21;;;;;;;14.75;6.30;;;;;;;20.11;74.16;101757.31;4985400;28;97209;-70
2023/10/02 04:06:53;;;;;;;12.95;6.60;;;;;;;20.23;73.43;101761.97;4989670;28;98911;-70
2023/10/02 04:09:23;;;;;;;14.38;6.38;;;;;;;20.16;74.08;101750.72;4990911;28;99215;-71
2023/10/02 04:11:51;;;;;;;16.35;6.50;;;;;;;20.23;73.21;101759.28;4986255;28;97233;-71
2023/10/02 04:14:18;;;;;;;16.70;6.47;;;;;;;19.79;73.55;101745.81;4983468;28;97626;-70
2023/10/02 04:16:48;;;;;;;16.08;6.80;;;;;;;20.25;71.38;101746.63;4989454;28;101255;-70
2023/10/02 04:19:16;;;;;;;15.45;6.50;;;;;;;20.32;70.90;101741.75;4982124;28;98884;-70
2023/10/02 04:21:45;;;;;;;14.13;6.00;;;;;;;20.23;72.00;101737.81;4989494;28;96727;-70
2023/10/02 04:24:13;;;;;;;12.68;6.65;;;;;;;20.49;69.82;101741.63;4982540;28;96974;-71
2023/10/02 04:26:41;;;;;;;14.18;6.50;;;;;;;20.25;70.55;101742.13;4988997;28;98890;-71
2023/10/02 04:29:15;;;;;;;17.67;6.22;;;;;;;20.36;70.92;101743.31;4984878;28;99302;-71
2023/10/02 04:31:44;;;;;;;15.10;6.53;;;;;;;20.35;70.96;101738.94;4978361;28;96777;-70
2023/10/02 04:34:24;;;;;;;13.93;6.30;;;;;;;20.23;71.38;101740.50;4985831;28;96789;-70
2023/10/02 04:36:51;;;;;;;14.75;6.30;;;;;;;20.16;71.66;101745.34;4980705;28;99055;-70
2023/10/02 04:42:11;;;;;;;19.73;7.30;;;;;;;20.12;71.69;101738.47;4987876;28;96890;-71
2023/10/02 04:44:44;;;;;;;18.20;7.28;;;;;;;20.02;71.93;101742.63;4990215;28;96937;-70
2023/10/02 04:47:17;;;;;;;20.77;8.57;;;;;;;20.13;70.65;101739.31;4979335;28;99386;-70
2023/10/02 04:50:34;;;;;;;18.05;7.43;;;;;;;20.18;70.55;101732.72;4982187;28;99163;-71
2023/10/02 04:53:03;;;;;;;18.67;7.80;;;;;;;20.25;69.60;101734.09;4983750;28;96874;-70
2023/10/02 04:55:41;;;;;;;15.40;7.57;;;;;;;20.10;70.21;101735.00;4979910;28;96788;-70
2023/10/02 04:58:09;;;;;;;17.17;7.72;;;;;;;20.28;69.44;101736.56;4977572;28;100758;-70
2023/10/02 05:00:38;;;;;;;17.20;7.90;;;;;;;20.10;69.77;101744.84;4978603;28;99741;-70
2023/10/02 05:03:17;;;;;;;18.38;8.05;;;;;;;20.38;68.44;101738.75;4974703;28;96917;-70
2023/10/02 05:05:47;;;;;;;17.75;7.80;;;;;;;20.19;69.59;101738.97;4975807;28;97119;-70
2023/10/02 05:08:18;;;;;;;16.90;7.45;;;;;;;20.17;69.93;101735.50;4985978;28;98885;-70
2023/10/02 05:10:49;;;;;;;18.63;8.00;;;;;;;20.12;69.93;101738.47;4976778;28;98764;-71
2023/10/02 05:13:44;;;;;;;15.30;7.50;;;;;;;20.09;69.72;101732.41;4977875;28;96846;-69
2023/10/02 05:16:11;;;;;;;16.08;7.18;;;;;;;19.90;71.67;101738.00;4980366;28;98708;-71
2023/10/02 05:18:37;;;;;;;16.88;7.82;;;;;;;19.71;72.90;101740.03;4980967;28;100850;-70
2023/10/02 05:21:04;;;;;;;18.52;7.35;;;;;;;19.75;72.23;101738.91;4980271;28;101407;-70
2023/10/02 05:23:30;;;;;;;18.85;7.95;;;;;;;19.82;71.39;101746.47;4982028;28;96734;-69
2023/10/02 05:26:00;;;;;;;;;;;;;;;19.98;71.05;101743.78;4980153;28;96823;-69
2023/10/02 05:28:26;;;;;;;18.70;8.82;;;;;;;19.97;71.07;101746.53;4976638;28;98828;-70
2023/10/02 05:30:58;;;;;;;15.18;7.80;;;;;;;19.96;70.29;101737.63;4982696;28;98298;-70
2023/10/02 05:33:37;;;;;;;16.88;7.28;;;;;;;19.86;70.91;101745.38;4977966;28;98435;-69
2023/10/02 05:36:08;;;;;;;16.23;7.22;;;;;;;20.06;70.37;101746.88;4979787;28;98976;-71
2023/10/02 05:38:36;;;;;;;16.05;7.35;;;;;;;20.15;69.67;101749.00;4985965;28;98884;-74
2023/10/02 05:41:12;;;;;;;16.15;7.35;;;;;;;20.14;68.85;101749.97;4975745;28;98841;-74
2023/10/02 05:43:55;;;;;;;19.03;8.63;;;;;;;20.23;68.69;101746.72;4976879;28;96904;-75
2023/10/02 05:46:21;;;;;;;15.98;7.85;;;;;;;20.27;67.86;101745.59;4983647;28;97161;-75
2023/10/02 05:49:00;;;;;;;20.08;9.07;;;;;;;20.29;67.52;101749.03;4980238;28;98791;-75
2023/10/02 05:51:45;;;;;;;20.48;8.57;;;;;;;20.37;67.33;101751.28;4985539;28;98786;-74
2023/10/02 05:54:12;;;;;;;21.60;7.90;;;;;;;20.60;66.35;101760.66;4978248;28;96908;-74
2023/10/02 05:56:40;;;;;;;22.70;8.82;;;;;;;20.46;66.64;101764.19;4981582;28;97526;-74
2023/10/02 05:59:07;;;;;;;17.90;8.38;;;;;;;20.49;66.48;101760.41;4978008;28;100038;-74
2023/10/02 06:01:35;;;;;;;19.65;8.45;;;;;;;20.72;65.17;101765.25;4978111;28;98124;-75
2023/10/02 06:04:04;;;;;;;20.05;8.55;;;;;;;20.73;65.36;101769.69;4980923;28;97589;-75
2023/10/02 06:06:35;;;;;;;16.50;8.60;;;;;;;20.61;65.83;101771.28;4979158;28;96933;-75
2023/10/02 06:09:03;;;;;;;17.83;7.82;;;;;;;20.81;64.63;101763.81;4971402;28;99250;-74
2023/10/02 06:11:33;;;;;;;17.38;8.25;;;;;;;20.79;64.22;101773.81;4982231;28;98862;-74
2023/10/02 06:14:13;;;;;;;17.77;8.05;;;;;;;20.98;63.96;101779.75;4987538;28;96835;-74
2023/10/02 06:16:41;;;;;;;20.52;8.82;;;;;;;21.05;63.68;101783.78;4987799;28;96753;-75
2023/10/02 06:19:13;;;;;;;20.67;8.48;;;;;;;20.97;63.61;101778.03;4975146;28;98935;-74
2023/10/02 06:21:46;;;;;;;20.88;9.25;;;;;;;20.99;63.13;101784.19;4979231;28;99073;-74
2023/10/02 06:24:14;;;;;;;18.90;8.65;;;;;;;21.04;63.31;101788.28;4975307;28;96728;-75
2023/10/02 06:26:53;;;;;;;23.23;9.15;;;;;;;21.20;62.72;101790.88;4980490;28;97463;-74
2023/10/02 06:29:23;;;;;;;19.95;9.20;;;;;;;21.36;61.55;101793.47;4978878;28;102143;-75
2023/10/02 06:31:59;;;;;;;21.15;8.88;;;;;;;21.65;60.75;101786.22;4978213;28;98144;-75
2023/10/02 06:34:36;;;;;;;22.17;9.27;;;;;;;21.84;60.59;101781.38;4976866;28;98269;-75
2023/10/02 06:37:07;;;;;;;19.95;8.18;;;;;;;21.68;60.43;101784.19;4979259;28;96869;-75
2023/10/02 06:39:35;;;;;;;21.98;8.82;;;;;;;21.77;60.22;101786.28;4982366;28;101752;-73
2023/10/02 06:42:04;;;;;;;21.77;8.57;;;;;;;21.65;60.17;101779.03;4970490;28;98808;-74
2023/10/02 06:44:42;;;;;;;18.60;8.77;;;;;;;21.75;59.86;101781.97;4974447;28;97401;-74
2023/10/02 06:47:13;;;;;;;19.42;8.43;;;;;;;21.93;59.28;101779.88;4983114;28;97342;-75
2023/10/02 06:49:40;;;;;;;17.02;8.10;;;;;;;22.00;59.12;101778.53;4974900;28;99937;-75
2023/10/02 06:52:16;;;;;;;21.75;8.63;;;;;;;21.71;59.96;101778.63;4973836;28;99463;-74
2023/10/02 06:54:44;;;;;;;16.63;8.50;;;;;;;21.95;58.79;101777.94;4982369;28;96936;-74
2023/10/02 06:57:13;;;;;;;18.83;9.65;;;;;;;21.90;59.15;101772.00;4978358;28;96903;-75
2023/10/02 06:59:51;;;;;;;24.98;9.15;;;;;;;21.95;58.92;101772.56;4977991;28;101154;-74
2023/10/02 07:02:18;;;;;;;20.17;8.85;;;;;;;22.02;58.78;101777.47;4978332;28;100234;-76
2023/10/02 07:04:47;;;;;;;19.92;8.73;;;;;;;21.91;58.62;101782.69;4976655;28;97403;-74
2023/10/02 07:07:14;;;;;;;24.17;8.77;;;;;;;22.08;58.64;101771.66;4973489;28;96862;-74
2023/10/02 07:09:41;;;;;;;17.75;8.32;;;;;;;22.27;58.08;101782.06;4967009;28;98943;-75
2023/10/02 07:12:13;;;;;;;21.00;8.85;;;;;;;22.41;57.30;101784.66;4975385;28;99031;-77
2023/10/02 07:14:45;;;;;;;19.15;9.20;;;;;;;22.41;57.04;101789.19;4981668;28;97220;-76
2023/10/02 07:17:18;;;;;;;18.08;8.98;;;;;;;22.52;56.85;101782.09;4978522;28;97242;-75
2023/10/02 07:19:50;;;;;;;25.90;10.10;;;;;;;22.46;56.62;101782.50;4974566;28;100775;-75
2023/10/02 07:22:25;;;;;;;18.98;9.13;;;;;;;22.64;56.16;101786.63;4975908;28;97966;-74
2023/10/02 07:24:55;;;;;;;25.02;9.15;;;;;;;22.87;56.29;101785.06;4979234;28;98895;-75
2023/10/02 07:27:25;;;;;;;18.88;9.88;;;;;;;22.89;55.69;101787.66;4973505;28;97241;-74
2023/10/02 07:29:58;;;;;;;19.27;9.43;;;;;;;22.83;55.60;101785.38;4970759;28;100010;-74
2023/10/02 07:32:27;;;;;;;23.65;9.52;;;;;;;23.00;55.31;101785.03;4970850;28;101893;-74
2023/10/02 07:35:09;;;;;;;20.63;9.60;;;;;;;23.06;55.41;101787.31;4982402;28;97345;-74
2023/10/02 07:37:36;;;;;;;21.17;9.15;;;;;;;23.03;54.96;101782.16;4972770;28;97535;-75
2023/10/02 07:40:06;;;;;;;20.90;9.07;;;;;;;23.16;55.52;101761.44;4968995;28;98914;-74
2023/10/02 07:42:34;;;;;;;22.23;9.80;;;;;;;23.49;54.26;101773.47;4968256;28;98549;-74
2023/10/02 07:45:24;;;;;;;20.60;8.95;;;;;;;23.48;53.73;101766.34;4971642;28;97147;-75
2023/10/02 07:48:10;;;;;;;26.45;9.60;;;;;;;23.74;53.30;101765.25;4968533;28;99184;-75
2023/10/02 07:50:38;;;;;;;21.30;9.33;;;;;;;23.73;52.93;101766.25;4977149;28;101158;-76
2023/10/02 07:53:06;;;;;;;19.92;9.25;;;;;;;23.65;52.57;101771.34;4972665;28;98736;-73
2023/10/02 07:55:34;;;;;;;25.63;9.25;;;;;;;23.85;52.52;101770.72;4977751;28;97057;-74
2023/10/02 07:58:01;;;;;;;18.95;9.02;;;;;;;23.90;52.55;101768.53;4972820;28;97025;-75
2023/10/02 08:00:38;;;;;;;21.13;9.82;;;;;;;24.51;51.41;101767.44;4972141;28;99194;-76
2023/10/02 08:03:29;;;;;;;20.67;8.88;;;;;;;24.93;50.24;101765.06;4965173;28;98908;-75
2023/10/02 08:05:56;;;;;;;22.30;9.15;;;;;;;24.78;50.02;101766.25;4970794;28;96822;-75
2023/10/02 08:08:25;;;;;;;20.88;9.38;;;;;;;24.93;49.25;101765.06;4974061;28;98724;-74
2023/10/02 08:10:53;;;;;;;19.98;9.10;;;;;;;25.15;48.79;101769.59;4970892;28;99295;-75
2023/10/02 08:13:32;;;;;;;17.58;9.45;;;;;;;25.11;48.37;101766.28;4980549;28;97542;-74
2023/10/02 08:16:02;;;;;;;19.15;8.95;;;;;;;25.41;47.94;101761.09;4982398;28;96867;-73
2023/10/02 08:18:29;;;;;;;17.90;8.80;;;;;;;25.72;47.08;101755.91;4974239;28;96939;-73
2023/10/02 08:20:55;;;;;;;17.05;8.43;;;;;;;25.60;48.19;101765.03;4970385;28;98884;-74
2023/10/02 08:23:24;;;;;;;14.70;7.80;;;;;;;25.61;47.59;101759.47;4973130;28;101648;-74
2023/10/02 08:26:02;;;;;;;20.90;8.50;;;;;;;25.78;47.15;101764.38;4981037;28;96790;-72
2023/10/02 08:28:29;;;;;;;21.45;8.43;;;;;;;25.70;47.47;101764.13;4975380;28;97137;-74
2023/10/02 08:31:00;;;;;;;19.25;8.35;;;;;;;25.92;46.90;101767.75;4975166;28;99463;-74
2023/10/02 08:33:30;;;;;;;25.55;8.77;;;;;;;25.77;47.76;101765.34;4977418;28;98864;-74
2023/10/02 08:35:58;;;;;;;20.23;8.60;;;;;;;25.93;47.76;101761.38;4977912;28;97061;-74
2023/10/02 08:38:26;;;;;;;15.05;7.70;;;;;;;25.74;47.81;101765.59;4980185;28;96995;-73
2023/10/02 08:40:58;;;;;;;18.05;8.32;;;;;;;25.87;48.07;101756.44;4981363;28;99590;-74
2023/10/02 08:43:24;;;;;;;19.35;8.30;;;;;;;25.88;48.08;101761.72;4977147;28;99615;-73
2023/10/02 08:45:51;;;;;;;19.92;8.45;;;;;;;25.86;48.24;101760.16;4979832;28;97661;-74
2023/10/02 08:48:19;;;;;;;20.42;7.95;;;;;;;26.09;47.84;101753.66;4977978;28;100019;-74
2023/10/02 08:50:48;;;;;;;17.45;8.50;;;;;;;26.35;46.91;101756.88;4976033;28;100012;-74
2023/10/02 08:53:20;;;;;;;18.40;7.90;;;;;;;26.16;47.81;101753.00;4974762;28;99967;-75
2023/10/02 08:55:54;;;;;;;19.20;7.63;;;;;;;26.23;47.49;101769.59;4980812;28;97322;-75
2023/10/02 08:58:22;;;;;;;17.73;7.63;;;;;;;26.73;46.33;101758.97;4982719;28;96867;-74
2023/10/02 09:01:17;;;;;;;16.42;8.07;;;;;;;26.68;45.95;101758.50;4980407;28;99930;-73
2023/10/02 09:04:21;;;;;;;15.88;7.65;;;;;;;26.73;46.47;101761.66;4981698;28;97670;-74
2023/10/02 09:06:44;;;;;;;16.40;8.18;;;;;;;26.75;46.37;101754.28;4974093;28;96993;-74
2023/10/02 09:09:25;;;;;;;17.65;8.27;;;;;;;26.86;46.05;101759.59;4973574;28;97577;-73
2023/10/02 09:11:53;;;;;;;19.92;8.23;;;;;;;26.90;45.91;101755.69;4977074;28;99163;-74
2023/10/02 09:14:22;;;;;;;15.13;7.78;;;;;;;27.00;46.17;101755.69;4974905;28;99590;-73
2023/10/02 09:17:07;;;;;;;15.40;7.85;;;;;;;26.72;45.81;101751.81;4976341;28;98989;-73
2023/10/02 09:19:34;;;;;;;18.15;7.63;;;;;;;26.72;45.93;101751.81;4975173;28;97661;-74
2023/10/02 09:22:10;;;;;;;14.30;7.20;;;;;;;26.82;46.22;101750.88;4980512;28;99008;-72
2023/10/02 09:24:38;;;;;;;17.70;7.57;;;;;;;26.86;46.00;101740.63;4978033;28;98942;-73
2023/10/02 09:27:24;;;;;;;16.75;7.75;;;;;;;27.14;45.57;101737.22;4971121;28;96914;-74
2023/10/02 09:30:15;;;;;;;14.93;7.60;;;;;;;27.45;45.10;101746.13;4978644;28;97215;-74
2023/10/02 09:32:47;;;;;;;16.20;8.15;;;;;;;27.27;44.94;101734.25;4973678;28;98715;-74
2023/10/02 09:35:29;;;;;;;14.85;7.65;;;;;;;27.43;43.99;101729.16;4976873;28;98839;-73
2023/10/02 09:38:02;;;;;;;13.40;7.18;;;;;;;27.63;44.36;101730.09;4980488;28;97908;-73
2023/10/02 09:40:53;;;;;;;15.43;7.90;;;;;;;27.33;43.97;101717.41;4980914;28;97256;-73
2023/10/02 09:43:20;;;;;;;14.70;7.82;;;;;;;27.57;44.02;101720.63;4977273;28;98697;-73
2023/10/02 09:45:48;;;;;;;18.05;7.30;;;;;;;27.71;43.95;101719.34;4975608;28;97730;-73
2023/10/02 09:51:07;;;;;;;16.42;7.65;;;;;;;27.91;42.70;101715.63;4980905;28;98314;-72
2023/10/02 09:53:38;;;;;;;23.02;8.20;;;;;;;27.94;42.60;101709.94;4964518;28;97952;-73
2023/10/02 09:56:13;;;;;;;13.35;7.03;;;;;;;28.11;42.60;101709.19;4977473;28;100251;-74
2023/10/02 09:58:49;;;;;;;14.68;7.38;;;;;;;28.06;43.02;101711.50;4978291;28;97327;-69
2023/10/02 10:01:37;;;;;;;16.27;7.50;;;;;;;27.95;42.50;101713.50;4980997;28;96848;-70
2023/10/02 10:04:30;;;;;;;21.00;7.15;;;;;;;28.24;42.17;101710.78;4977517;28;99244;-70
2023/10/02 10:07:26;;;;;;;16.33;7.53;;;;;;;28.28;41.82;101704.94;4971833;28;100033;-70
2023/10/02 10:10:27;;;;;;;13.50;7.03;;;;;;;28.24;42.22;101700.75;4976969;28;97353;-70
2023/10/02 10:12:55;;;;;;;13.02;7.45;;;;;;;28.04;42.48;101702.63;4973809;28;97250;-70
2023/10/02 10:15:25;;;;;;;13.10;7.10;;;;;;;28.29;42.80;101695.75;4971082;28;98115;-70
2023/10/02 10:17:57;;;;;;;18.25;7.78;;;;;;;28.54;42.56;101697.00;4970125;28;98646;-70
2023/10/02 10:20:26;;;;;;;14.55;7.47;;;;;;;28.61;42.09;101692.69;4978009;28;97437;-69
2023/10/02 10:22:55;;;;;;;10.68;6.15;;;;;;;28.63;42.61;101698.81;4976441;28;97156;-73
2023/10/02 10:25:50;;;;;;;13.48;6.88;;;;;;;28.53;42.15;101698.00;4983105;28;99385;-70
2023/10/02 10:28:30;;;;;;;13.80;7.13;;;;;;;28.55;41.69;101691.38;4981547;28;99279;-69
2023/10/02 10:31:01;;;;;;;19.45;7.57;;;;;;;28.51;41.96;101689.13;4973661;28;97297;-70
2023/10/02 10:33:35;;;;;;;14.23;7.07;;;;;;;28.59;42.24;101691.97;4974523;28;97331;-71
2023/10/02 10:36:09;;;;;;;17.83;7.32;;;;;;;28.46;42.36;101695.00;4971797;28;98922;-69
2023/10/02 10:38:36;;;;;;;13.90;7.05;;;;;;;28.57;42.26;101691.25;4978059;28;98228;-70
2023/10/02 10:41:09;;;;;;;12.02;6.78;;;;;;;28.38;43.03;101688.59;4977405;28;96764;-70
2023/10/02 10:43:55;;;;;;;12.18;6.47;;;;;;;28.42;42.48;101690.03;4972104;28;97224;-70
2023/10/02 10:46:27;;;;;;;14.25;7.22;;;;;;;28.39;43.43;101687.59;4975942;28;99537;-70
2023/10/02 10:48:59;;;;;;;12.25;6.72;;;;;;;28.30;42.31;101669.44;4980106;28;98379;-70
2023/10/02 10:51:27;;;;;;;15.43;7.28;;;;;;;28.26;42.79;101668.03;4976154;28;98792;-71
2023/10/02 10:54:12;;;;;;;15.63;7.03;;;;;;;28.33;42.28;101659.13;4971526;28;98100;-71
2023/10/02 10:56:43;;;;;;;13.93;6.93;;;;;;;28.39;42.72;101660.41;4977045;28;98353;-70
2023/10/02 10:59:11;;;;;;;14.18;7.22;;;;;;;28.10;42.63;101658.56;4982965;28;99070;-70
2023/10/02 11:01:39;;;;;;;16.05;7.18;;;;;;;28.17;43.22;101658.00;4971783;28;96970;-71
2023/10/02 11:04:06;;;;;;;12.50;6.95;;;;;;;28.13;43.63;101652.84;4972057;28;96907;-70
2023/10/02 11:06:41;;;;;;;15.15;6.32;;;;;;;28.02;43.33;101653.03;4977896;28;98943;-71
2023/10/02 11:09:12;;;;;;;14.38;7.07;;;;;;;27.98;43.70;101651.59;4976669;28;99285;-70
2023/10/02 11:11:49;;;;;;;16.30;6.90;;;;;;;27.91;45.16;101653.16;4973881;28;98148;-70
2023/10/02 11:14:20;;;;;;;12.55;6.40;;;;;;;27.63;44.42;101652.22;4975717;28;97239;-69
2023/10/02 11:16:51;;;;;;;13.57;5.90;;;;;;;27.85;43.88;101642.88;4976828;28;102281;-69
2023/10/02 11:19:34;;;;;;;14.65;6.38;;;;;;;27.89;43.89;101644.34;4976242;28;97340;-69
2023/10/02 11:25:17;;;;;;;14.57;6.93;;;;;;;28.05;43.85;101641.00;4970941;28;97219;-70
2023/10/02 11:27:56;;;;;;;12.95;6.38;;;;;;;28.06;44.30;101635.44;4970312;28;100937;-69
2023/10/02 11:30:31;;;;;;;15.35;6.32;;;;;;;28.44;43.74;101637.19;4970840;28;98858;-70
2023/10/02 11:33:00;;;;;;;13.02;6.43;;;;;;;28.35;43.04;101635.38;4975388;28;97045;-71
2023/10/02 11:35:28;;;;;;;13.00;6.75;;;;;;;28.30;42.65;101631.38;4977159;28;96939;-70
2023/10/02 11:37:56;;;;;;;13.93;6.03;;;;;;;28.14;43.50;101640.16;4980496;28;99661;-70
2023/10/02 11:40:25;;;;;;;19.15;6.90;;;;;;;28.29;42.96;101632.41;4980972;28;99319;-71
2023/10/02 11:42:53;;;;;;;19.85;7.10;;;;;;;28.27;43.01;101628.97;4976075;28;97290;-70
2023/10/02 11:45:19;;;;;;;14.05;7.05;;;;;;;28.29;43.75;101624.25;4977712;28;97312;-70
2023/10/02 11:47:46;;;;;;;13.15;6.22;;;;;;;28.40;43.19;101622.22;4977338;28;99154;-70
2023/10/02 11:50:12;;;;;;;11.88;7.18;;;;;;;28.53;43.18;101619.16;4980585;28;99165;-70